createdAt,value
2022-10-09T00:00:53.769Z,1958
2022-10-09T00:01:53.727Z,2122
2022-10-09T00:03:53.999Z,2506
2022-10-09T00:04:53.745Z,2574
2022-10-09T00:05:53.705Z,2574
2022-10-09T00:06:53.800Z,2162
2022-10-09T00:08:53.968Z,2542
2022-10-09T00:09:53.703Z,2702
2022-10-09T00:10:53.802Z,2645
2022-10-09T00:11:53.702Z,2669
2022-10-09T00:13:53.983Z,2689
2022-10-09T00:14:53.804Z,2645
2022-10-09T00:15:53.807Z,2447
2022-10-09T00:16:53.744Z,2645
2022-10-09T00:18:53.991Z,2212
2022-10-09T00:19:53.696Z,2645
2022-10-09T00:20:53.686Z,2635
2022-10-09T00:21:53.714Z,2584
2022-10-09T00:23:53.986Z,2178
2022-10-09T00:24:53.713Z,2520
2022-10-09T00:25:53.804Z,2596
2022-10-09T00:26:53.715Z,2645
2022-10-09T00:28:54.116Z,2616
2022-10-09T00:29:53.681Z,3308
2022-10-09T00:30:53.775Z,2291
2022-10-09T00:31:53.727Z,1987
2022-10-09T00:33:54.014Z,2263
2022-10-09T00:34:53.729Z,2185
2022-10-09T00:35:53.730Z,2696
2022-10-09T00:36:53.717Z,2212
2022-10-09T00:38:54.006Z,2702
2022-10-09T00:39:53.811Z,2676
2022-10-09T00:40:53.700Z,2616
2022-10-09T00:41:53.720Z,2409
2022-10-09T00:43:54.023Z,2195
2022-10-09T00:44:53.811Z,2300
2022-10-09T00:45:53.868Z,2291
2022-10-09T00:46:53.702Z,2401
2022-10-09T00:48:53.985Z,2785
2022-10-09T00:49:53.717Z,2799
2022-10-09T00:50:53.694Z,2300
2022-10-09T00:51:53.758Z,2610
2022-10-09T00:53:53.995Z,2696
2022-10-09T00:54:53.829Z,2755
2022-10-09T00:55:53.701Z,2334
2022-10-09T00:56:53.704Z,2845
2022-10-09T00:58:54.022Z,2353
2022-10-09T00:59:53.711Z,2425
2022-10-09T01:00:53.719Z,2919
2022-10-09T01:01:53.846Z,2977
2022-10-09T01:03:54.034Z,2799
2022-10-09T01:04:53.717Z,2344
2022-10-09T01:05:53.845Z,2313
2022-10-09T01:06:53.705Z,2353
2022-10-09T01:08:53.999Z,2845
2022-10-09T01:09:53.727Z,2309
2022-10-09T01:10:53.727Z,2772
2022-10-09T01:11:53.740Z,2257
2022-10-09T01:13:54.021Z,2291
2022-10-09T01:14:53.719Z,2882
2022-10-09T01:15:53.883Z,2372
2022-10-09T01:16:53.832Z,2409
2022-10-09T01:18:54.009Z,2328
2022-10-09T01:19:53.727Z,2376
2022-10-09T01:20:53.712Z,2755
2022-10-09T01:21:53.719Z,2768
2022-10-09T01:23:54.028Z,2334
2022-10-09T01:24:53.712Z,2993
2022-10-09T01:25:53.717Z,2584
2022-10-09T01:26:53.739Z,2812
2022-10-09T01:28:54.016Z,3032
2022-10-09T01:29:53.843Z,2993
2022-10-09T01:30:53.804Z,2457
2022-10-09T01:31:53.840Z,2466
2022-10-09T01:33:54.049Z,2785
2022-10-09T01:34:53.848Z,2888
2022-10-09T01:35:53.745Z,2954
2022-10-09T01:36:53.757Z,2955
2022-10-09T01:38:54.040Z,2401
2022-10-09T01:39:53.723Z,2954
2022-10-09T01:40:53.765Z,2977
2022-10-09T01:41:53.849Z,3025
2022-10-09T01:43:53.978Z,2386
2022-10-09T01:44:53.863Z,2954
2022-10-09T01:45:53.902Z,2501
2022-10-09T01:46:53.849Z,2476
2022-10-09T01:48:54.054Z,1860
2022-10-09T01:49:53.748Z,2525
2022-10-09T01:50:53.836Z,3083
2022-10-09T01:51:53.739Z,3018
2022-10-09T01:53:54.038Z,2584
2022-10-09T01:54:53.735Z,3050
2022-10-09T01:55:53.765Z,3018
2022-10-09T01:56:53.765Z,3143
2022-10-09T01:58:54.053Z,2696
2022-10-09T01:59:53.747Z,2457
2022-10-09T02:00:53.856Z,2414
2022-10-09T02:01:53.876Z,2401
2022-10-09T02:03:54.023Z,2591
2022-10-09T02:04:53.756Z,2278
2022-10-09T02:05:53.860Z,2596
2022-10-09T02:06:53.761Z,2652
2022-10-09T02:08:54.055Z,2696
2022-10-09T02:09:53.760Z,3119
2022-10-09T02:10:53.747Z,3308
2022-10-09T02:11:53.779Z,3274
2022-10-09T02:13:54.060Z,3308
2022-10-09T02:14:53.887Z,3340
2022-10-09T02:15:53.795Z,3334
2022-10-09T02:16:53.774Z,2739
2022-10-09T02:18:54.028Z,2762
2022-10-09T02:19:53.748Z,2490
2022-10-09T02:20:53.781Z,2367
2022-10-09T02:21:54.642Z,3281
2022-10-09T02:23:54.046Z,2652
2022-10-09T02:24:53.855Z,2984
2022-10-09T02:25:53.740Z,3437
2022-10-09T02:26:53.748Z,2929
2022-10-09T02:28:54.153Z,2852
2022-10-09T02:29:53.747Z,2791
2022-10-09T02:30:53.884Z,2768
2022-10-09T02:31:53.878Z,3366
2022-10-09T02:33:54.070Z,3394
2022-10-09T02:34:53.782Z,2791
2022-10-09T02:35:53.858Z,2409
2022-10-09T02:36:53.757Z,3296
2022-10-09T02:38:54.042Z,2860
2022-10-09T02:39:53.769Z,3518
2022-10-09T02:40:53.779Z,2864
2022-10-09T02:41:53.755Z,3453
2022-10-09T02:43:54.038Z,2900
2022-10-09T02:44:53.750Z,3479
2022-10-09T02:45:53.779Z,3479
2022-10-09T02:46:53.926Z,3430
2022-10-09T02:48:54.050Z,2823
2022-10-09T02:49:53.744Z,3408
2022-10-09T02:50:53.892Z,3375
2022-10-09T02:51:53.776Z,3330
2022-10-09T02:53:54.057Z,2744
2022-10-09T02:54:53.784Z,3324
2022-10-09T02:55:53.792Z,3366
2022-10-09T02:56:53.886Z,3209
2022-10-09T02:58:54.053Z,2635
2022-10-09T02:59:53.792Z,3334
2022-10-09T03:00:53.794Z,2762
2022-10-09T03:01:53.905Z,3430
2022-10-09T03:03:54.053Z,3225
2022-10-09T03:04:53.888Z,3131
2022-10-09T03:05:53.769Z,2961
2022-10-09T03:06:53.885Z,3362
2022-10-09T03:08:54.091Z,2684
2022-10-09T03:09:53.910Z,2706
2022-10-09T03:10:53.903Z,2684
2022-10-09T03:11:53.773Z,3107
2022-10-09T03:13:54.092Z,3209
2022-10-09T03:14:53.821Z,3356
2022-10-09T03:15:53.844Z,2799
2022-10-09T03:16:53.773Z,2830
2022-10-09T03:18:54.068Z,3122
2022-10-09T03:19:53.761Z,3586
2022-10-09T03:20:53.804Z,3579
2022-10-09T03:21:53.784Z,3635
2022-10-09T03:23:54.099Z,2961
2022-10-09T03:24:53.771Z,2806
2022-10-09T03:25:53.804Z,2744
2022-10-09T03:26:53.803Z,2722
2022-10-09T03:28:54.140Z,3308
2022-10-09T03:29:53.806Z,3394
2022-10-09T03:30:53.989Z,3366
2022-10-09T03:31:53.851Z,3453
2022-10-09T03:33:54.099Z,3287
2022-10-09T03:34:53.765Z,3243
2022-10-09T03:35:53.810Z,2860
2022-10-09T03:36:53.814Z,2727
2022-10-09T03:38:54.101Z,2645
2022-10-09T03:39:53.809Z,3234
2022-10-09T03:40:53.811Z,3234
2022-10-09T03:41:53.816Z,3324
2022-10-09T03:43:54.069Z,2663
2022-10-09T03:44:53.813Z,2727
2022-10-09T03:45:53.842Z,2663
2022-10-09T03:46:53.848Z,3092
2022-10-09T03:48:54.101Z,3215
2022-10-09T03:49:53.809Z,3131
2022-10-09T03:50:53.808Z,2598
2022-10-09T03:51:53.799Z,3137
2022-10-09T03:53:54.114Z,2778
2022-10-09T03:54:53.915Z,2990
2022-10-09T03:55:53.912Z,2948
2022-10-09T03:56:53.794Z,2924
2022-10-09T03:58:54.105Z,2970
2022-10-09T03:59:53.912Z,2977
2022-10-09T04:00:54.017Z,2591
2022-10-09T04:01:53.945Z,3107
2022-10-09T04:03:54.095Z,3067
2022-10-09T04:04:53.923Z,3122
2022-10-09T04:05:53.798Z,3209
2022-10-09T04:06:53.899Z,3158
2022-10-09T04:08:54.117Z,3098
2022-10-09T04:09:53.791Z,2324
2022-10-09T04:10:53.806Z,2799
2022-10-09T04:11:53.792Z,2823
2022-10-09T04:13:54.087Z,2328
2022-10-09T04:14:53.813Z,2970
2022-10-09T04:15:54.031Z,2970
2022-10-09T04:16:53.924Z,2727
2022-10-09T04:18:54.124Z,2888
2022-10-09T04:19:53.796Z,2830
2022-10-09T04:20:53.818Z,2313
2022-10-09T04:21:53.903Z,2681
2022-10-09T04:23:54.111Z,2696
2022-10-09T04:24:53.808Z,2199
2022-10-09T04:25:53.813Z,2852
2022-10-09T04:26:53.906Z,2236
2022-10-09T04:28:54.096Z,2778
2022-10-09T04:29:53.800Z,2778
2022-10-09T04:30:53.825Z,2274
2022-10-09T04:31:53.886Z,2184
2022-10-09T04:33:54.107Z,2755
2022-10-09T04:34:53.831Z,2739
2022-10-09T04:35:53.805Z,2591
2022-10-09T04:36:53.819Z,2278
2022-10-09T04:38:54.115Z,2253
2022-10-09T04:39:53.861Z,2019
2022-10-09T04:40:53.831Z,2019
2022-10-09T04:41:53.825Z,2195
2022-10-09T04:43:54.123Z,2591
2022-10-09T04:44:53.826Z,2328
2022-10-09T04:45:53.880Z,2744
2022-10-09T04:46:53.871Z,2749
2022-10-09T04:48:54.130Z,2338
2022-10-09T04:49:53.814Z,2706
2022-10-09T04:50:53.813Z,2749
2022-10-09T04:51:53.832Z,2263
2022-10-09T04:53:57.205Z,1979
2022-10-09T04:54:53.973Z,2812
2022-10-09T04:55:53.937Z,2386
2022-10-09T04:56:53.958Z,2328
2022-10-09T04:58:54.106Z,2860
2022-10-09T04:59:53.829Z,2406
2022-10-09T05:00:53.879Z,2386
2022-10-09T05:01:53.857Z,2864
2022-10-09T05:03:54.106Z,2864
2022-10-09T05:04:53.939Z,2584
2022-10-09T05:05:53.951Z,2130
2022-10-09T05:06:53.838Z,2162
2022-10-09T05:08:54.132Z,2584
2022-10-09T05:09:53.857Z,2148
2022-10-09T05:10:53.828Z,2570
2022-10-09T05:11:53.987Z,2537
2022-10-09T05:13:54.114Z,2114
2022-10-09T05:14:53.847Z,2640
2022-10-09T05:15:53.851Z,2676
2022-10-09T05:17:12.834Z,2191
2022-10-09T05:18:54.120Z,2630
2022-10-09T05:19:53.856Z,2216
2022-10-09T05:20:53.854Z,2174
2022-10-09T05:21:53.853Z,2630
2022-10-09T05:23:54.119Z,2598
2022-10-09T05:24:53.822Z,2068
2022-10-09T05:25:53.853Z,2570
2022-10-09T05:26:53.818Z,2591
2022-10-09T05:28:54.120Z,2367
2022-10-09T05:29:53.846Z,2755
2022-10-09T05:30:53.826Z,2755
2022-10-09T05:31:53.922Z,2739
2022-10-09T05:33:54.148Z,2739
2022-10-09T05:34:53.860Z,2663
2022-10-09T05:35:53.853Z,2684
2022-10-09T05:36:53.865Z,2162
2022-10-09T05:38:54.154Z,2376
2022-10-09T05:39:53.861Z,2130
2022-10-09T05:40:53.871Z,2706
2022-10-09T05:41:53.860Z,2558
2022-10-09T05:43:54.133Z,2913
2022-10-09T05:44:53.875Z,2900
2022-10-09T05:45:53.922Z,2324
2022-10-09T05:46:53.964Z,2739
2022-10-09T05:48:54.144Z,2367
2022-10-09T05:49:53.965Z,2913
2022-10-09T05:50:53.985Z,2420
2022-10-09T05:51:53.958Z,2913
2022-10-09T05:53:54.127Z,2349
2022-10-09T05:54:53.957Z,2645
2022-10-09T05:55:53.978Z,2663
2022-10-09T05:56:53.962Z,2140
2022-10-09T05:58:54.154Z,2558
2022-10-09T05:59:53.962Z,2110
2022-10-09T06:00:54.053Z,2110
2022-10-09T06:01:54.065Z,2447
2022-10-09T06:03:54.158Z,2630
2022-10-09T06:04:53.977Z,2090
2022-10-09T06:05:53.881Z,2094
2022-10-09T06:06:53.867Z,2514
2022-10-09T06:08:54.170Z,1900
2022-10-09T06:09:53.842Z,2506
2022-10-09T06:10:53.860Z,2414
2022-10-09T06:11:53.895Z,2425
2022-10-09T06:13:54.146Z,2482
2022-10-09T06:14:53.846Z,2558
2022-10-09T06:15:53.868Z,2495
2022-10-09T06:16:53.932Z,2050
2022-10-09T06:18:54.170Z,2514
2022-10-09T06:19:53.855Z,2732
2022-10-09T06:20:53.866Z,2259
2022-10-09T06:21:53.853Z,2732
2022-10-09T06:23:54.189Z,2168
2022-10-09T06:24:53.885Z,2425
2022-10-09T06:25:53.867Z,1832
2022-10-09T06:26:53.876Z,1979
2022-10-09T06:28:54.180Z,2019
2022-10-09T06:29:53.977Z,1991
2022-10-09T06:30:54.008Z,2363
2022-10-09T06:31:54.006Z,2106
2022-10-09T06:33:54.108Z,1780
2022-10-09T06:34:54.010Z,1924
2022-10-09T06:35:57.794Z,2138
2022-10-09T06:36:53.864Z,2096
2022-10-09T06:38:54.160Z,1782
2022-10-09T06:39:53.885Z,2142
2022-10-09T06:40:53.860Z,2158
2022-10-09T06:41:53.992Z,1812
2022-10-09T06:43:54.185Z,2138
2022-10-09T06:44:54.010Z,2016
2022-10-09T06:45:54.019Z,2009
2022-10-09T06:46:53.994Z,1697
2022-10-09T06:48:54.157Z,2009
2022-10-09T06:49:53.984Z,1597
2022-10-09T06:50:53.865Z,1571
2022-10-09T06:51:53.884Z,1907
2022-10-09T06:53:54.159Z,1790
2022-10-09T06:54:53.888Z,1571
2022-10-09T06:55:53.876Z,1877
2022-10-09T06:56:53.906Z,1915
2022-10-09T06:58:54.164Z,1623
2022-10-09T06:59:53.879Z,1666
2022-10-09T07:00:53.868Z,2014
2022-10-09T07:01:54.047Z,1956
2022-10-09T07:03:54.164Z,1620
2022-10-09T07:04:53.910Z,1932
2022-10-09T07:05:53.913Z,1961
2022-10-09T07:06:53.906Z,1991
2022-10-09T07:08:54.197Z,1663
2022-10-09T07:09:53.914Z,1801
2022-10-09T07:10:53.905Z,1658
2022-10-09T07:11:53.921Z,1902
2022-10-09T07:13:54.196Z,1548
2022-10-09T07:14:53.928Z,1577
2022-10-09T07:15:54.053Z,1561
2022-10-09T07:16:53.906Z,1597
2022-10-09T07:18:54.166Z,1808
2022-10-09T07:19:53.905Z,1710
2022-10-09T07:20:53.896Z,1666
2022-10-09T07:21:53.891Z,1405
2022-10-09T07:23:54.207Z,1745
2022-10-09T07:24:53.993Z,1790
2022-10-09T07:25:54.008Z,1821
2022-10-09T07:26:53.986Z,1574
2022-10-09T07:28:54.181Z,1363
2022-10-09T07:29:53.994Z,1798
2022-10-09T07:30:54.072Z,1798
2022-10-09T07:31:54.026Z,1782
2022-10-09T07:33:54.181Z,1430
2022-10-09T07:34:54.008Z,1794
2022-10-09T07:35:54.013Z,1798
2022-10-09T07:36:54.016Z,1794
2022-10-09T07:38:54.194Z,1465
2022-10-09T07:39:54.003Z,1437
2022-10-09T07:40:54.056Z,1745
2022-10-09T07:41:53.994Z,1722
2022-10-09T07:43:54.195Z,1232
2022-10-09T07:44:54.015Z,1507
2022-10-09T07:45:54.020Z,1740
2022-10-09T07:46:54.022Z,1745
2022-10-09T07:48:54.211Z,1482
2022-10-09T07:49:54.005Z,1761
2022-10-09T07:50:54.012Z,1705
2022-10-09T07:51:54.021Z,1581
2022-10-09T07:53:54.141Z,1599
2022-10-09T07:54:53.915Z,1707
2022-10-09T07:55:53.921Z,1794
2022-10-09T07:56:53.908Z,1816
2022-10-09T07:58:54.194Z,1798
2022-10-09T07:59:53.928Z,1308
2022-10-09T08:00:53.907Z,1592
2022-10-09T08:01:53.998Z,1610
2022-10-09T08:03:54.200Z,1346
2022-10-09T08:04:53.896Z,1388
2022-10-09T08:05:53.933Z,1682
2022-10-09T08:06:53.943Z,1710
2022-10-09T08:08:54.191Z,1482
2022-10-09T08:09:53.922Z,1416
2022-10-09T08:10:53.923Z,1654
2022-10-09T08:11:53.916Z,1666
2022-10-09T08:13:54.207Z,1319
2022-10-09T08:14:53.927Z,1450
2022-10-09T08:15:53.954Z,1740
2022-10-09T08:16:53.923Z,1751
2022-10-09T08:18:54.197Z,1670
2022-10-09T08:19:53.900Z,1265
2022-10-09T08:20:54.032Z,1293
2022-10-09T08:21:53.935Z,1293
2022-10-09T08:23:54.204Z,1510
2022-10-09T08:24:53.939Z,1634
2022-10-09T08:25:53.938Z,1440
2022-10-09T08:26:53.961Z,1379
2022-10-09T08:28:54.249Z,1714
2022-10-09T08:29:53.948Z,1317
2022-10-09T08:30:54.115Z,1527
2022-10-09T08:31:53.942Z,1308
2022-10-09T08:33:54.234Z,1559
2022-10-09T08:34:54.032Z,1623
2022-10-09T08:35:53.947Z,1550
2022-10-09T08:36:54.036Z,1519
2022-10-09T08:38:54.231Z,1298
2022-10-09T08:39:54.042Z,1175
2022-10-09T08:40:58.089Z,1421
2022-10-09T08:41:54.113Z,1414
2022-10-09T08:43:54.209Z,1461
2022-10-09T08:44:54.042Z,1269
2022-10-09T08:45:54.059Z,1170
2022-10-09T08:46:54.095Z,1504
2022-10-09T08:48:54.209Z,1468
2022-10-09T08:49:53.937Z,1525
2022-10-09T08:50:53.919Z,1507
2022-10-09T08:51:53.939Z,1282
2022-10-09T08:53:54.238Z,1223
2022-10-09T08:54:53.913Z,1168
2022-10-09T08:55:53.930Z,1360
2022-10-09T08:56:53.920Z,1317
2022-10-09T08:58:54.214Z,1312
2022-10-09T08:59:53.924Z,1089
2022-10-09T09:00:53.947Z,1043
2022-10-09T09:01:54.005Z,1156
2022-10-09T09:03:54.218Z,1284
2022-10-09T09:04:54.817Z,1269
2022-10-09T09:05:53.927Z,1095
2022-10-09T09:06:53.952Z,1096
2022-10-09T09:08:54.227Z,1248
2022-10-09T09:09:53.954Z,1341
2022-10-09T09:10:53.942Z,1382
2022-10-09T09:11:53.953Z,1450
2022-10-09T09:13:54.228Z,1069
2022-10-09T09:14:53.930Z,1060
2022-10-09T09:15:53.989Z,1359
2022-10-09T09:16:53.928Z,1242
2022-10-09T09:18:54.243Z,1115
2022-10-09T09:19:53.939Z,1043
2022-10-09T09:20:53.970Z,1267
2022-10-09T09:21:53.939Z,1168
2022-10-09T09:23:54.227Z,1195
2022-10-09T09:24:53.977Z,940
2022-10-09T09:25:53.967Z,1060
2022-10-09T09:26:53.970Z,940
2022-10-09T09:28:54.303Z,1036
2022-10-09T09:29:53.971Z,972
2022-10-09T09:30:54.023Z,1004
2022-10-09T09:31:53.977Z,972
2022-10-09T09:33:54.264Z,972
2022-10-09T09:34:53.980Z,1137
2022-10-09T09:35:53.979Z,1121
2022-10-09T09:36:53.984Z,1082
2022-10-09T09:39:35.365Z,1130
2022-10-09T09:40:34.703Z,1057
2022-10-09T09:40:53.984Z,1057
2022-10-09T09:41:53.974Z,1057
2022-10-09T09:43:54.252Z,1113
2022-10-09T09:44:54.049Z,1034
2022-10-09T09:45:53.997Z,1074
2022-10-09T09:46:54.012Z,1113
2022-10-09T09:48:54.260Z,1034
2022-10-09T09:49:53.978Z,961
2022-10-09T09:51:10.028Z,1048
2022-10-09T09:51:53.975Z,1036
2022-10-09T09:53:54.266Z,1028
2022-10-09T09:54:54.163Z,942
2022-10-09T09:55:53.982Z,942
2022-10-09T09:57:11.500Z,1013
2022-10-09T09:58:54.265Z,955
2022-10-09T09:59:54.073Z,1132
2022-10-09T10:00:54.130Z,961
2022-10-09T10:01:54.136Z,961
2022-10-09T10:03:54.246Z,961
2022-10-09T10:04:54.234Z,1055
2022-10-09T10:05:54.087Z,1032
2022-10-09T10:06:54.110Z,1018
2022-10-09T10:08:54.272Z,944
2022-10-09T10:09:54.082Z,1006
2022-10-09T10:10:54.093Z,1006
2022-10-09T10:11:54.089Z,1032
2022-10-09T10:13:54.273Z,1055
2022-10-09T10:14:54.086Z,983
2022-10-09T10:15:54.100Z,983
2022-10-09T10:16:54.086Z,983
2022-10-09T10:18:54.282Z,983
2022-10-09T10:19:54.115Z,1016
2022-10-09T10:20:54.074Z,1091
2022-10-09T10:21:54.108Z,1069
2022-10-09T10:23:54.300Z,1069
2022-10-09T10:24:54.074Z,972
2022-10-09T10:25:54.093Z,972
2022-10-09T10:26:54.071Z,972
2022-10-09T10:28:54.218Z,972
2022-10-09T10:29:54.083Z,969
2022-10-09T10:30:54.108Z,961
2022-10-09T10:31:54.088Z,961
2022-10-09T10:33:54.224Z,961
2022-10-09T10:34:54.094Z,1006
2022-10-09T10:35:54.083Z,1006
2022-10-09T10:36:54.096Z,1006
2022-10-09T10:38:54.267Z,1006
2022-10-09T10:39:53.982Z,1034
2022-10-09T10:40:53.968Z,1034
2022-10-09T10:41:53.977Z,1034
2022-10-09T10:43:54.270Z,1034
2022-10-09T10:44:54.008Z,901
2022-10-09T10:45:53.973Z,901
2022-10-09T10:46:54.050Z,901
2022-10-09T10:48:54.270Z,901
2022-10-09T10:49:54.012Z,947
2022-10-09T10:50:54.022Z,947
2022-10-09T10:51:54.017Z,947
2022-10-09T10:53:54.508Z,947
2022-10-09T10:54:54.041Z,925
2022-10-09T10:55:54.004Z,925
2022-10-09T10:56:54.000Z,925
2022-10-09T10:58:54.301Z,929
2022-10-09T10:59:54.005Z,851
2022-10-09T11:00:54.039Z,851
2022-10-09T11:01:54.001Z,851
2022-10-09T11:03:54.306Z,851
2022-10-09T11:04:53.987Z,864
2022-10-09T11:05:54.002Z,864
2022-10-09T11:06:53.985Z,864
2022-10-09T11:08:54.275Z,864
2022-10-09T11:09:54.017Z,952
2022-10-09T11:10:54.013Z,952
2022-10-09T11:11:53.984Z,952
2022-10-09T11:13:54.280Z,952
2022-10-09T11:14:54.013Z,925
2022-10-09T11:15:54.083Z,925
2022-10-09T11:16:53.996Z,925
2022-10-09T11:18:54.287Z,925
2022-10-09T11:19:54.015Z,885
2022-10-09T11:20:53.996Z,885
2022-10-09T11:21:54.004Z,885
2022-10-09T11:23:54.283Z,885
2022-10-09T11:24:54.014Z,888
2022-10-09T11:25:53.999Z,888
2022-10-09T11:26:54.007Z,888
2022-10-09T11:28:54.292Z,888
2022-10-09T11:29:54.019Z,842
2022-10-09T11:30:54.043Z,842
2022-10-09T11:31:54.141Z,842
2022-10-09T11:33:54.324Z,842
2022-10-09T11:34:54.010Z,819
2022-10-09T11:35:54.021Z,819
2022-10-09T11:36:54.009Z,819
2022-10-09T11:38:54.298Z,819
2022-10-09T11:39:54.020Z,754
2022-10-09T11:40:54.047Z,754
2022-10-09T11:41:54.028Z,754
2022-10-09T11:43:54.293Z,900
2022-10-09T11:44:54.025Z,880
2022-10-09T11:45:54.056Z,871
2022-10-09T11:46:54.025Z,852
2022-10-09T11:48:54.338Z,754
2022-10-09T11:49:54.011Z,913
2022-10-09T11:50:54.024Z,913
2022-10-09T11:51:54.002Z,913
2022-10-09T11:53:54.311Z,1104
2022-10-09T11:54:54.030Z,944
2022-10-09T11:55:54.036Z,949
2022-10-09T11:56:54.042Z,972
2022-10-09T11:58:54.306Z,816
2022-10-09T11:59:54.018Z,700
2022-10-09T12:00:54.138Z,849
2022-10-09T12:01:54.064Z,711
2022-10-09T12:03:57.568Z,883
2022-10-09T12:04:55.125Z,972
2022-10-09T12:05:54.031Z,991
2022-10-09T12:06:54.027Z,996
2022-10-09T12:08:54.344Z,857
2022-10-09T12:09:54.018Z,1036
2022-10-09T12:10:54.037Z,868
2022-10-09T12:11:54.018Z,871
2022-10-09T12:13:54.342Z,1057
2022-10-09T12:14:54.017Z,956
2022-10-09T12:15:54.039Z,964
2022-10-09T12:16:54.081Z,786
2022-10-09T12:18:54.347Z,980
2022-10-09T12:19:57.366Z,844
2022-10-09T12:20:54.040Z,857
2022-10-09T12:21:54.024Z,1069
2022-10-09T12:23:54.327Z,1071
2022-10-09T12:24:54.036Z,1082
2022-10-09T12:25:54.041Z,921
2022-10-09T12:26:54.171Z,1094
2022-10-09T12:28:54.316Z,928
2022-10-09T12:29:54.155Z,985
2022-10-09T12:30:54.215Z,1004
2022-10-09T12:31:54.136Z,992
2022-10-09T12:33:54.349Z,952
2022-10-09T12:34:54.159Z,779
2022-10-09T12:35:54.169Z,896
2022-10-09T12:36:54.156Z,1125
2022-10-09T12:38:54.337Z,961
2022-10-09T12:39:54.175Z,1051
2022-10-09T12:40:54.070Z,1075
2022-10-09T12:41:54.190Z,1147
2022-10-09T12:43:54.347Z,1147
2022-10-09T12:44:54.031Z,1226
2022-10-09T12:45:54.086Z,1197
2022-10-09T12:46:54.055Z,949
2022-10-09T12:48:54.332Z,1002
2022-10-09T12:49:54.072Z,1260
2022-10-09T12:50:54.055Z,1291
2022-10-09T12:51:56.032Z,1016
2022-10-09T12:53:54.336Z,956
2022-10-09T12:54:54.166Z,1295
2022-10-09T12:55:54.045Z,1055
2022-10-09T12:56:54.043Z,1286
2022-10-09T12:58:54.365Z,909
2022-10-09T12:59:54.045Z,1374
2022-10-09T13:00:54.043Z,1368
2022-10-09T13:01:54.216Z,1143
2022-10-09T13:03:54.339Z,1007
2022-10-09T13:04:54.065Z,1203
2022-10-09T13:05:54.055Z,1143
2022-10-09T13:06:54.044Z,1170
2022-10-09T13:08:54.367Z,1170
2022-10-09T13:09:54.053Z,991
2022-10-09T13:10:54.075Z,1248
2022-10-09T13:11:54.063Z,1175
2022-10-09T13:13:54.378Z,982
2022-10-09T13:14:54.172Z,1188
2022-10-09T13:15:54.190Z,1158
2022-10-09T13:16:54.253Z,1173
2022-10-09T13:17:54.196Z,1170
2022-10-09T13:18:54.348Z,949
2022-10-09T13:19:54.186Z,969
2022-10-09T13:20:54.181Z,1060
2022-10-09T13:21:54.192Z,1074
2022-10-09T13:23:54.366Z,1110
2022-10-09T13:24:54.204Z,926
2022-10-09T13:25:54.202Z,1147
2022-10-09T13:26:54.103Z,1101
2022-10-09T13:28:54.356Z,947
2022-10-09T13:29:54.107Z,1061
2022-10-09T13:30:54.236Z,1101
2022-10-09T13:31:54.094Z,1094
2022-10-09T13:33:54.361Z,751
2022-10-09T13:34:54.056Z,925
2022-10-09T13:35:54.101Z,1141
2022-10-09T13:36:54.069Z,1156
2022-10-09T13:38:54.362Z,956
2022-10-09T13:39:54.091Z,1119
2022-10-09T13:40:54.073Z,916
2022-10-09T13:41:54.094Z,895
2022-10-09T13:43:54.354Z,1002
2022-10-09T13:44:54.095Z,969
2022-10-09T13:45:54.105Z,985
2022-10-09T13:46:54.096Z,969
2022-10-09T13:48:54.365Z,970
2022-10-09T13:49:54.095Z,880
2022-10-09T13:50:54.083Z,876
2022-10-09T13:51:54.080Z,731
2022-10-09T13:53:54.378Z,852
2022-10-09T13:54:54.090Z,763
2022-10-09T13:55:55.963Z,836
2022-10-09T13:56:54.106Z,726
2022-10-09T13:58:54.368Z,849
2022-10-09T13:59:54.100Z,815
2022-10-09T14:00:54.080Z,680
2022-10-09T14:01:54.117Z,702
2022-10-09T14:03:54.391Z,779
2022-10-09T14:04:54.088Z,836
2022-10-09T14:05:54.106Z,881
2022-10-09T14:06:54.092Z,879
2022-10-09T14:07:54.597Z,759
2022-10-09T14:08:54.432Z,754
2022-10-09T14:09:54.187Z,798
2022-10-09T14:10:54.103Z,926
2022-10-09T14:11:54.204Z,974
2022-10-09T14:12:54.215Z,947
2022-10-09T14:13:54.407Z,947
2022-10-09T14:14:54.195Z,700
2022-10-09T14:15:54.214Z,786
2022-10-09T14:16:54.213Z,805
2022-10-09T14:17:54.233Z,822
2022-10-09T14:18:54.410Z,700
2022-10-09T14:19:54.215Z,825
2022-10-09T14:20:54.218Z,806
2022-10-09T14:21:54.214Z,700
2022-10-09T14:22:54.200Z,803
2022-10-09T14:23:54.410Z,786
2022-10-09T14:24:54.221Z,849
2022-10-09T14:25:54.256Z,744
2022-10-09T14:26:54.214Z,744
2022-10-09T14:27:54.223Z,777
2022-10-09T14:28:54.385Z,766
2022-10-09T14:29:55.358Z,773
2022-10-09T14:30:54.214Z,773
2022-10-09T14:31:54.128Z,805
2022-10-09T14:33:54.392Z,813
2022-10-09T14:34:54.130Z,801
2022-10-09T14:35:54.128Z,765
2022-10-09T14:36:54.097Z,799
2022-10-09T14:37:54.215Z,765
2022-10-09T14:38:54.400Z,765
2022-10-09T14:39:54.117Z,766
2022-10-09T14:40:54.111Z,782
2022-10-09T14:41:54.119Z,768
2022-10-09T14:43:54.398Z,766
2022-10-09T14:44:54.120Z,750
2022-10-09T14:45:54.101Z,742
2022-10-09T14:46:54.091Z,741
2022-10-09T14:48:54.402Z,741
2022-10-09T14:49:54.114Z,813
2022-10-09T14:50:54.111Z,813
2022-10-09T14:51:54.125Z,813
2022-10-09T14:52:54.218Z,813
2022-10-09T14:53:54.430Z,813
2022-10-09T14:54:54.243Z,900
2022-10-09T14:55:54.128Z,900
2022-10-09T14:56:54.217Z,900
2022-10-09T14:58:54.425Z,900
2022-10-09T14:59:54.132Z,960
2022-10-09T15:00:54.230Z,960
2022-10-09T15:01:54.101Z,960
2022-10-09T15:03:54.536Z,960
2022-10-09T15:04:54.130Z,907
2022-10-09T15:05:54.107Z,907
2022-10-09T15:06:54.132Z,907
2022-10-09T15:08:54.419Z,907
2022-10-09T15:09:54.142Z,960
2022-10-09T15:10:54.127Z,960
2022-10-09T15:11:54.112Z,960
2022-10-09T15:13:54.408Z,960
2022-10-09T15:14:54.126Z,934
2022-10-09T15:15:54.111Z,934
2022-10-09T15:16:54.127Z,934
2022-10-09T15:18:54.413Z,934
2022-10-09T15:19:54.155Z,885
2022-10-09T15:20:54.146Z,885
2022-10-09T15:21:54.123Z,885
2022-10-09T15:23:54.422Z,885
2022-10-09T15:24:54.143Z,965
2022-10-09T15:25:54.120Z,965
2022-10-09T15:26:54.142Z,965
2022-10-09T15:28:54.452Z,965
2022-10-09T15:29:54.140Z,977
2022-10-09T15:30:54.147Z,977
2022-10-09T15:31:54.127Z,977
2022-10-09T15:33:54.418Z,977
2022-10-09T15:34:54.143Z,913
2022-10-09T15:35:54.132Z,913
2022-10-09T15:36:54.153Z,913
2022-10-09T15:38:54.457Z,913
2022-10-09T15:39:54.132Z,965
2022-10-09T15:40:54.179Z,965
2022-10-09T15:41:54.130Z,965
2022-10-09T15:43:54.428Z,965
2022-10-09T15:44:54.152Z,995
2022-10-09T15:45:54.160Z,995
2022-10-09T15:46:54.153Z,995
2022-10-09T15:48:54.462Z,995
2022-10-09T15:49:54.131Z,961
2022-10-09T15:50:54.160Z,961
2022-10-09T15:51:54.179Z,961
2022-10-09T15:53:54.457Z,961
2022-10-09T15:54:54.175Z,1016
2022-10-09T15:55:54.210Z,1016
2022-10-09T15:56:54.172Z,1016
2022-10-09T15:58:54.435Z,1016
2022-10-09T15:59:54.162Z,1006
2022-10-09T16:00:54.179Z,1006
2022-10-09T16:01:54.187Z,1006
2022-10-09T16:03:54.442Z,1006
2022-10-09T16:04:54.175Z,1057
2022-10-09T16:05:54.177Z,1057
2022-10-09T16:06:54.182Z,1057
2022-10-09T16:08:54.468Z,1057
2022-10-09T16:09:54.142Z,1034
2022-10-09T16:10:54.271Z,1034
2022-10-09T16:11:54.144Z,1034
2022-10-09T16:13:54.446Z,1034
2022-10-09T16:14:54.175Z,972
2022-10-09T16:15:54.291Z,972
2022-10-09T16:16:54.286Z,972
2022-10-09T16:18:54.442Z,972
2022-10-09T16:19:54.282Z,1018
2022-10-09T16:20:54.188Z,1018
2022-10-09T16:21:54.154Z,1018
2022-10-09T16:23:58.320Z,1018
2022-10-09T16:24:54.133Z,1018
2022-10-09T16:25:54.153Z,1018
2022-10-09T16:26:54.186Z,1018
2022-10-09T16:28:54.523Z,1018
2022-10-09T16:29:54.278Z,1057
2022-10-09T16:30:54.150Z,1057
2022-10-09T16:31:54.157Z,1057
2022-10-09T16:32:54.281Z,1057
2022-10-09T16:33:54.438Z,1057
2022-10-09T16:34:54.285Z,1057
2022-10-09T16:35:54.331Z,1057
2022-10-09T16:36:54.281Z,1057